Meteo Giornale » Osservazioni meteo Italia » Milano-Linate

ore: 19:20 - Osservazioni Meteo Milano-Linate
Lat. 45° 26' N Lon. 9° 17' E Alt. 107 metri s.l.m.

poco_nuvoloso Europe/Rome

3 °C

Poco Nuvoloso

Temp. 24 Ore

0 °C

8 °C

Nord

0 Km/h

Dew point 1 °C

Umidità 86 %

Visibilità  10 Km

Il sole sorge alle ore 07:52

Il sole tramonta alle ore 16:41

Data e Ora Cielo e Fenomeni T °C DP °C Um. % Pres. hPa Vis. km Vento km/h
Oggi h: 19:20 poco_nuvoloso Poco Nuvoloso 3 1 86 1015 10 N 0
Oggi h: 18:50 sereno Sereno 3 1 86 1015 10 N 3.7
Oggi h: 18:20 sereno Sereno 4 2 86 1015 10 N 3.7
Oggi h: 17:50 sereno Sereno 3 1 86 1015 10 N 0
Oggi h: 17:20 sereno Sereno 5 1 75 1015 10 N 3.7
Oggi h: 16:50 sereno Sereno 5 1 75 1015 10 N 5.5
Oggi h: 16:20 sereno Sereno 7 1 65 1015 10 O/SO 7.4
Oggi h: 15:50 sereno Sereno 7 1 65 1015 10 O/SO 7.4
Oggi h: 15:20 sereno Sereno 7 2 70 1015 10 SO 7.4
Oggi h: 14:50 nuvoloso Nuvoloso 7 2 70 1015 10 SO 7.4
Oggi h: 14:20 poco_nuvoloso Poco Nuvoloso 8 2 65 1016 10 O 7.4
Oggi h: 13:50 sereno Sereno 7 2 70 1016 9 O/SO 9.3
Oggi h: 13:20 sereno Sereno 7 2 70 1016 9 O/SO 7.4
Oggi h: 12:20 sereno Sereno 5 5 100 1017 8 N 3.7
Oggi h: 11:50 foschia Foschia 5 5 100 1017 3 N 0
Oggi h: 11:20 nebbia Nebbia 2 2 100 1017 0.8 N 1.8
Oggi h: 10:50 nebbia Nebbia 1 1 100 1018 0.1 N 0
Oggi h: 10:20 nebbia Nebbia 0 0 100 1018 0.1 N 1.8
Oggi h: 09:50 nebbia Nebbia -0 -0 100 1018 0.1 N 5.5
Oggi h: 09:20 nebbia Nebbia Congelantesi -0 -0 100 1017 0.1 N 5.5
Oggi h: 08:50 nebbia Nebbia Congelantesi -0 -0 100 1017 0.1 SO 11.1
Oggi h: 08:20 nebbia Nebbia Congelantesi 0 0 100 1017 0.1 N 3.7
Oggi h: 07:50 nebbia Nebbia Congelantesi 0 0 100 1017 0.3 N 5.5
Oggi h: 07:20 foschia Foschia 0 0 100 1017 2 SO 7.4
Oggi h: 06:50 foschia Foschia 0 0 100 1016 2 N 5.5
Oggi h: 06:20 foschia Foschia 0 0 100 1016 1 N 5.5
Oggi h: 05:50 nebbia Nebbia 1 1 100 1016 0.8 N 5.5
Oggi h: 05:20 nebbia Nebbia 1 1 100 1016 0.5 N 3.7
Oggi h: 04:50 nebbia Nebbia 0 0 100 1016 0.5 N 5.5
Oggi h: 04:20 nebbia Nebbia 1 1 100 1016 0.5 SO 9.3
Oggi h: 03:50 nebbia Nebbia 1 1 100 1016 0.5 O/SO 7.4
Oggi h: 03:20 nebbia Nebbia 1 1 100 1016 0.5 O 9.3
Oggi h: 02:50 nebbia Nebbia 1 1 100 1016 0.5 O 7.4
Oggi h: 01:50 nebbia Nebbia 2 2 100 1015 0.5 O/SO 7.4
Oggi h: 01:20 nebbia Nebbia 1 1 100 1015 0.5 O 13
Oggi h: 00:50 foschia Foschia 2 2 100 1015 2 O/SO 11.1
Oggi h: 00:20 nebbia Nebbia 2 2 100 1015 0.5 O/SO 11.1
Ieri h: 23:50 nebbia Nebbia 2 2 100 1015 0.3 SO 11.1
Ieri h: 23:20 nebbia Nebbia 2 2 100 1015 0.3 SO 7.4
Ieri h: 22:50 nebbia Nebbia 2 2 100 1014 0.3 SO 9.3
Ieri h: 22:20 nebbia Nebbia 2 2 100 1014 0.3 SO 9.3
Ieri h: 21:50 nebbia Nebbia 2 2 100 1014 0.5 O/SO 9.3
Ieri h: 21:20 nebbia Nebbia 2 2 100 1014 0.5 SO 7.4
Ieri h: 20:50 nebbia Nebbia 2 2 100 1014 0.3 N 5.5
Ieri h: 20:20 nebbia Nebbia 2 2 100 1013 0.1 S/SO 9.3
Ieri h: 19:50 nebbia Nebbia 2 2 100 1013 0.1 S/SO 7.4
Ieri h: 19:20 nebbia Nebbia 3 2 93 1013 0.1 S/SO 7.4
Ieri h: 18:50 nebbia Nebbia 2 2 100 1012 0.2 N 5.5